sensor_id;sensor_type;location;lat;lon;timestamp;P1;durP1;ratioP1;P2;durP2;ratioP2
69835;SDS011;57132;51.972;4.450;2023-03-20T00:00:42;29.05;;;10.60;;
69835;SDS011;57132;51.972;4.450;2023-03-20T00:03:10;25.50;;;9.73;;
69835;SDS011;57132;51.972;4.450;2023-03-20T00:05:37;28.88;;;10.50;;
69835;SDS011;57132;51.972;4.450;2023-03-20T00:08:02;21.50;;;9.38;;
69835;SDS011;57132;51.972;4.450;2023-03-20T00:10:39;24.75;;;10.15;;
69835;SDS011;57132;51.972;4.450;2023-03-20T00:13:07;26.35;;;9.35;;
69835;SDS011;57132;51.972;4.450;2023-03-20T00:15:42;21.05;;;9.43;;
69835;SDS011;57132;51.972;4.450;2023-03-20T00:18:15;23.70;;;8.98;;
69835;SDS011;57132;51.972;4.450;2023-03-20T00:20:46;31.23;;;9.90;;
69835;SDS011;57132;51.972;4.450;2023-03-20T00:23:11;30.08;;;8.80;;
69835;SDS011;57132;51.972;4.450;2023-03-20T00:25:38;24.30;;;8.98;;
69835;SDS011;57132;51.972;4.450;2023-03-20T00:30:41;29.40;;;9.38;;
69835;SDS011;57132;51.972;4.450;2023-03-20T00:33:08;31.75;;;10.63;;
69835;SDS011;57132;51.972;4.450;2023-03-20T00:35:34;27.70;;;9.35;;
69835;SDS011;57132;51.972;4.450;2023-03-20T00:38:00;23.45;;;9.15;;
69835;SDS011;57132;51.972;4.450;2023-03-20T00:40:29;20.63;;;8.50;;
69835;SDS011;57132;51.972;4.450;2023-03-20T00:42:59;28.17;;;9.95;;
69835;SDS011;57132;51.972;4.450;2023-03-20T00:45:26;20.67;;;8.85;;
69835;SDS011;57132;51.972;4.450;2023-03-20T00:47:53;20.08;;;9.02;;
69835;SDS011;57132;51.972;4.450;2023-03-20T00:50:22;24.92;;;9.00;;
69835;SDS011;57132;51.972;4.450;2023-03-20T00:52:53;25.30;;;9.55;;
69835;SDS011;57132;51.972;4.450;2023-03-20T00:55:19;26.73;;;10.93;;
69835;SDS011;57132;51.972;4.450;2023-03-20T00:57:51;26.65;;;9.02;;
69835;SDS011;57132;51.972;4.450;2023-03-20T01:00:21;24.60;;;10.30;;
69835;SDS011;57132;51.972;4.450;2023-03-20T01:02:52;28.33;;;10.02;;
69835;SDS011;57132;51.972;4.450;2023-03-20T01:05:20;20.15;;;9.68;;
69835;SDS011;57132;51.972;4.450;2023-03-20T01:07:46;32.70;;;11.38;;
69835;SDS011;57132;51.972;4.450;2023-03-20T01:10:12;20.35;;;9.43;;
69835;SDS011;57132;51.972;4.450;2023-03-20T01:12:38;28.30;;;10.55;;
69835;SDS011;57132;51.972;4.450;2023-03-20T01:15:13;23.67;;;10.50;;
69835;SDS011;57132;51.972;4.450;2023-03-20T01:17:44;38.70;;;10.85;;
69835;SDS011;57132;51.972;4.450;2023-03-20T01:20:14;31.00;;;10.38;;
69835;SDS011;57132;51.972;4.450;2023-03-20T01:22:45;29.95;;;11.88;;
69835;SDS011;57132;51.972;4.450;2023-03-20T01:25:11;21.40;;;11.02;;
69835;SDS011;57132;51.972;4.450;2023-03-20T01:27:36;29.30;;;10.77;;
69835;SDS011;57132;51.972;4.450;2023-03-20T01:30:02;33.33;;;11.45;;
69835;SDS011;57132;51.972;4.450;2023-03-20T01:32:30;28.35;;;10.70;;
69835;SDS011;57132;51.972;4.450;2023-03-20T01:34:56;29.45;;;10.75;;
69835;SDS011;57132;51.972;4.450;2023-03-20T01:37:23;28.15;;;11.65;;
69835;SDS011;57132;51.972;4.450;2023-03-20T01:39:50;32.47;;;12.07;;
69835;SDS011;57132;51.972;4.450;2023-03-20T01:42:15;25.63;;;11.38;;
69835;SDS011;57132;51.972;4.450;2023-03-20T01:44:42;32.90;;;12.90;;
69835;SDS011;57132;51.972;4.450;2023-03-20T01:47:13;30.80;;;12.32;;
69835;SDS011;57132;51.972;4.450;2023-03-20T01:52:42;25.95;;;13.95;;
69835;SDS011;57132;51.972;4.450;2023-03-20T01:55:07;43.90;;;15.35;;
69835;SDS011;57132;51.972;4.450;2023-03-20T01:57:33;30.00;;;14.70;;
69835;SDS011;57132;51.972;4.450;2023-03-20T02:02:50;30.05;;;14.23;;
69835;SDS011;57132;51.972;4.450;2023-03-20T02:05:16;31.92;;;13.43;;
69835;SDS011;57132;51.972;4.450;2023-03-20T02:07:46;35.25;;;14.95;;
69835;SDS011;57132;51.972;4.450;2023-03-20T02:10:18;28.92;;;13.15;;
69835;SDS011;57132;51.972;4.450;2023-03-20T02:12:43;26.33;;;12.70;;
69835;SDS011;57132;51.972;4.450;2023-03-20T02:15:11;35.88;;;13.93;;
69835;SDS011;57132;51.972;4.450;2023-03-20T02:17:40;31.50;;;13.07;;
69835;SDS011;57132;51.972;4.450;2023-03-20T02:26:04;27.77;;;12.38;;
69835;SDS011;57132;51.972;4.450;2023-03-20T02:28:55;25.50;;;12.95;;
69835;SDS011;57132;51.972;4.450;2023-03-20T02:36:50;28.10;;;13.50;;
69835;SDS011;57132;51.972;4.450;2023-03-20T02:42:07;24.95;;;13.85;;
69835;SDS011;57132;51.972;4.450;2023-03-20T02:44:52;34.22;;;15.55;;
69835;SDS011;57132;51.972;4.450;2023-03-20T02:48:15;32.63;;;14.98;;
69835;SDS011;57132;51.972;4.450;2023-03-20T02:50:40;25.33;;;14.65;;
69835;SDS011;57132;51.972;4.450;2023-03-20T03:02:16;38.25;;;15.40;;
69835;SDS011;57132;51.972;4.450;2023-03-20T03:04:53;26.77;;;14.63;;
69835;SDS011;57132;51.972;4.450;2023-03-20T03:07:24;32.30;;;13.85;;
69835;SDS011;57132;51.972;4.450;2023-03-20T03:09:59;27.95;;;13.15;;
69835;SDS011;57132;51.972;4.450;2023-03-20T03:12:31;28.42;;;14.90;;
69835;SDS011;57132;51.972;4.450;2023-03-20T03:15:03;29.73;;;13.80;;
69835;SDS011;57132;51.972;4.450;2023-03-20T03:17:34;26.02;;;13.32;;
69835;SDS011;57132;51.972;4.450;2023-03-20T03:20:03;33.58;;;14.55;;
69835;SDS011;57132;51.972;4.450;2023-03-20T03:22:33;27.85;;;13.50;;
69835;SDS011;57132;51.972;4.450;2023-03-20T03:25:00;33.55;;;15.10;;
69835;SDS011;57132;51.972;4.450;2023-03-20T03:27:31;27.17;;;13.23;;
69835;SDS011;57132;51.972;4.450;2023-03-20T03:30:02;28.63;;;14.38;;
69835;SDS011;57132;51.972;4.450;2023-03-20T03:32:48;29.33;;;15.45;;
69835;SDS011;57132;51.972;4.450;2023-03-20T03:35:21;30.63;;;14.87;;
69835;SDS011;57132;51.972;4.450;2023-03-20T03:40:44;28.40;;;14.43;;
69835;SDS011;57132;51.972;4.450;2023-03-20T03:43:22;31.25;;;14.70;;
69835;SDS011;57132;51.972;4.450;2023-03-20T03:45:56;26.92;;;14.10;;
69835;SDS011;57132;51.972;4.450;2023-03-20T03:48:35;30.75;;;14.82;;
69835;SDS011;57132;51.972;4.450;2023-03-20T03:51:08;38.53;;;16.38;;
69835;SDS011;57132;51.972;4.450;2023-03-20T03:53:39;32.63;;;16.20;;
69835;SDS011;57132;51.972;4.450;2023-03-20T03:56:13;32.33;;;16.17;;
69835;SDS011;57132;51.972;4.450;2023-03-20T03:58:47;36.75;;;17.02;;
69835;SDS011;57132;51.972;4.450;2023-03-20T04:01:16;39.65;;;17.45;;
69835;SDS011;57132;51.972;4.450;2023-03-20T04:03:47;35.70;;;17.17;;
69835;SDS011;57132;51.972;4.450;2023-03-20T04:06:15;28.85;;;16.55;;
69835;SDS011;57132;51.972;4.450;2023-03-20T04:08:42;27.55;;;16.45;;
69835;SDS011;57132;51.972;4.450;2023-03-20T04:11:11;33.72;;;16.73;;
69835;SDS011;57132;51.972;4.450;2023-03-20T04:13:40;32.85;;;17.33;;
69835;SDS011;57132;51.972;4.450;2023-03-20T04:16:06;31.88;;;18.48;;
69835;SDS011;57132;51.972;4.450;2023-03-20T04:18:43;31.42;;;16.90;;
69835;SDS011;57132;51.972;4.450;2023-03-20T04:21:09;31.27;;;17.23;;
69835;SDS011;57132;51.972;4.450;2023-03-20T04:23:35;37.97;;;18.63;;
69835;SDS011;57132;51.972;4.450;2023-03-20T04:26:01;36.00;;;18.52;;
69835;SDS011;57132;51.972;4.450;2023-03-20T04:28:27;34.88;;;18.40;;
69835;SDS011;57132;51.972;4.450;2023-03-20T04:30:53;28.65;;;16.65;;
69835;SDS011;57132;51.972;4.450;2023-03-20T04:33:20;30.17;;;16.35;;
69835;SDS011;57132;51.972;4.450;2023-03-20T04:35:46;34.47;;;17.05;;
69835;SDS011;57132;51.972;4.450;2023-03-20T04:38:12;31.38;;;16.55;;
69835;SDS011;57132;51.972;4.450;2023-03-20T04:40:37;39.63;;;17.42;;
69835;SDS011;57132;51.972;4.450;2023-03-20T04:43:03;34.13;;;17.13;;
69835;SDS011;57132;51.972;4.450;2023-03-20T04:45:29;33.95;;;17.00;;
69835;SDS011;57132;51.972;4.450;2023-03-20T04:47:54;33.90;;;16.52;;
69835;SDS011;57132;51.972;4.450;2023-03-20T04:50:19;38.05;;;17.45;;
69835;SDS011;57132;51.972;4.450;2023-03-20T04:52:45;33.28;;;17.30;;
69835;SDS011;57132;51.972;4.450;2023-03-20T04:55:10;34.75;;;17.02;;
69835;SDS011;57132;51.972;4.450;2023-03-20T04:57:35;30.73;;;16.02;;
69835;SDS011;57132;51.972;4.450;2023-03-20T05:00:01;34.13;;;15.93;;
69835;SDS011;57132;51.972;4.450;2023-03-20T05:02:28;38.65;;;15.93;;
69835;SDS011;57132;51.972;4.450;2023-03-20T05:04:54;34.33;;;15.70;;
69835;SDS011;57132;51.972;4.450;2023-03-20T05:07:19;32.17;;;17.00;;
69835;SDS011;57132;51.972;4.450;2023-03-20T05:09:45;29.98;;;15.70;;
69835;SDS011;57132;51.972;4.450;2023-03-20T05:12:11;27.05;;;14.55;;
69835;SDS011;57132;51.972;4.450;2023-03-20T05:14:37;31.63;;;15.80;;
69835;SDS011;57132;51.972;4.450;2023-03-20T05:17:02;31.95;;;16.50;;
69835;SDS011;57132;51.972;4.450;2023-03-20T05:19:28;38.08;;;16.55;;
69835;SDS011;57132;51.972;4.450;2023-03-20T05:21:53;32.22;;;14.95;;
69835;SDS011;57132;51.972;4.450;2023-03-20T05:24:19;35.60;;;15.95;;
69835;SDS011;57132;51.972;4.450;2023-03-20T05:26:45;39.40;;;15.48;;
69835;SDS011;57132;51.972;4.450;2023-03-20T05:29:11;36.70;;;15.75;;
69835;SDS011;57132;51.972;4.450;2023-03-20T05:31:36;25.80;;;15.15;;
69835;SDS011;57132;51.972;4.450;2023-03-20T05:34:02;34.90;;;14.50;;
69835;SDS011;57132;51.972;4.450;2023-03-20T05:36:27;31.48;;;14.48;;
69835;SDS011;57132;51.972;4.450;2023-03-20T05:38:53;28.58;;;14.23;;
69835;SDS011;57132;51.972;4.450;2023-03-20T05:41:18;33.05;;;14.55;;
69835;SDS011;57132;51.972;4.450;2023-03-20T05:43:43;31.63;;;14.75;;
69835;SDS011;57132;51.972;4.450;2023-03-20T05:46:09;28.42;;;12.85;;
69835;SDS011;57132;51.972;4.450;2023-03-20T05:48:34;30.90;;;14.40;;
69835;SDS011;57132;51.972;4.450;2023-03-20T05:51:01;35.88;;;14.50;;
69835;SDS011;57132;51.972;4.450;2023-03-20T05:53:26;26.35;;;12.75;;
69835;SDS011;57132;51.972;4.450;2023-03-20T05:55:52;37.70;;;13.77;;
69835;SDS011;57132;51.972;4.450;2023-03-20T05:58:17;34.13;;;13.32;;
69835;SDS011;57132;51.972;4.450;2023-03-20T06:00:42;29.60;;;11.45;;
69835;SDS011;57132;51.972;4.450;2023-03-20T06:03:08;26.83;;;12.90;;
69835;SDS011;57132;51.972;4.450;2023-03-20T06:05:34;27.45;;;12.25;;
69835;SDS011;57132;51.972;4.450;2023-03-20T06:08:00;33.53;;;11.50;;
69835;SDS011;57132;51.972;4.450;2023-03-20T06:10:26;27.50;;;11.88;;
69835;SDS011;57132;51.972;4.450;2023-03-20T06:12:54;27.20;;;11.50;;
69835;SDS011;57132;51.972;4.450;2023-03-20T06:15:20;30.38;;;11.48;;
69835;SDS011;57132;51.972;4.450;2023-03-20T06:17:45;30.38;;;11.90;;
69835;SDS011;57132;51.972;4.450;2023-03-20T06:20:11;30.52;;;11.40;;
69835;SDS011;57132;51.972;4.450;2023-03-20T06:22:37;27.88;;;12.10;;
69835;SDS011;57132;51.972;4.450;2023-03-20T06:25:02;24.45;;;10.15;;
69835;SDS011;57132;51.972;4.450;2023-03-20T06:27:29;36.53;;;11.88;;
69835;SDS011;57132;51.972;4.450;2023-03-20T06:29:55;22.10;;;9.77;;
69835;SDS011;57132;51.972;4.450;2023-03-20T06:32:21;22.75;;;10.75;;
69835;SDS011;57132;51.972;4.450;2023-03-20T06:34:46;27.42;;;10.07;;
69835;SDS011;57132;51.972;4.450;2023-03-20T06:37:12;24.58;;;8.93;;
69835;SDS011;57132;51.972;4.450;2023-03-20T06:39:38;21.52;;;10.18;;
69835;SDS011;57132;51.972;4.450;2023-03-20T06:42:03;34.45;;;10.45;;
69835;SDS011;57132;51.972;4.450;2023-03-20T06:44:29;23.98;;;10.00;;
69835;SDS011;57132;51.972;4.450;2023-03-20T06:46:54;19.65;;;9.23;;
69835;SDS011;57132;51.972;4.450;2023-03-20T06:49:20;25.80;;;9.20;;
69835;SDS011;57132;51.972;4.450;2023-03-20T06:51:46;24.33;;;9.27;;
69835;SDS011;57132;51.972;4.450;2023-03-20T06:54:12;23.83;;;8.32;;
69835;SDS011;57132;51.972;4.450;2023-03-20T06:56:38;18.92;;;8.20;;
69835;SDS011;57132;51.972;4.450;2023-03-20T06:59:03;23.80;;;8.52;;
69835;SDS011;57132;51.972;4.450;2023-03-20T07:01:28;20.75;;;9.43;;
69835;SDS011;57132;51.972;4.450;2023-03-20T07:03:54;25.27;;;8.07;;
69835;SDS011;57132;51.972;4.450;2023-03-20T07:06:19;20.67;;;9.23;;
69835;SDS011;57132;51.972;4.450;2023-03-20T07:08:45;21.77;;;8.93;;
69835;SDS011;57132;51.972;4.450;2023-03-20T07:11:11;21.42;;;9.15;;
69835;SDS011;57132;51.972;4.450;2023-03-20T07:13:36;22.35;;;8.30;;
69835;SDS011;57132;51.972;4.450;2023-03-20T07:16:02;26.38;;;8.05;;
69835;SDS011;57132;51.972;4.450;2023-03-20T07:18:28;17.30;;;8.05;;
69835;SDS011;57132;51.972;4.450;2023-03-20T07:20:56;18.08;;;7.25;;
69835;SDS011;57132;51.972;4.450;2023-03-20T07:23:26;20.92;;;7.45;;
69835;SDS011;57132;51.972;4.450;2023-03-20T07:25:52;22.35;;;7.05;;
69835;SDS011;57132;51.972;4.450;2023-03-20T07:28:17;18.38;;;6.97;;
69835;SDS011;57132;51.972;4.450;2023-03-20T07:30:43;17.58;;;6.07;;
69835;SDS011;57132;51.972;4.450;2023-03-20T07:33:08;18.30;;;7.07;;
69835;SDS011;57132;51.972;4.450;2023-03-20T07:35:34;20.55;;;7.13;;
69835;SDS011;57132;51.972;4.450;2023-03-20T07:38:00;20.25;;;7.28;;
69835;SDS011;57132;51.972;4.450;2023-03-20T07:40:25;20.75;;;7.22;;
69835;SDS011;57132;51.972;4.450;2023-03-20T07:42:51;22.20;;;7.78;;
69835;SDS011;57132;51.972;4.450;2023-03-20T07:45:16;26.17;;;7.32;;
69835;SDS011;57132;51.972;4.450;2023-03-20T07:47:42;17.63;;;6.78;;
69835;SDS011;57132;51.972;4.450;2023-03-20T07:50:09;15.43;;;6.78;;
69835;SDS011;57132;51.972;4.450;2023-03-20T07:52:35;20.30;;;7.25;;
69835;SDS011;57132;51.972;4.450;2023-03-20T07:55:00;16.23;;;7.60;;
69835;SDS011;57132;51.972;4.450;2023-03-20T07:57:25;23.95;;;8.60;;
69835;SDS011;57132;51.972;4.450;2023-03-20T07:59:51;19.95;;;7.93;;
69835;SDS011;57132;51.972;4.450;2023-03-20T08:02:16;27.02;;;8.32;;
69835;SDS011;57132;51.972;4.450;2023-03-20T08:04:43;24.27;;;8.35;;
69835;SDS011;57132;51.972;4.450;2023-03-20T08:07:09;19.42;;;7.35;;
69835;SDS011;57132;51.972;4.450;2023-03-20T08:09:35;22.35;;;7.30;;
69835;SDS011;57132;51.972;4.450;2023-03-20T08:12:00;23.35;;;8.52;;
69835;SDS011;57132;51.972;4.450;2023-03-20T08:14:26;29.10;;;7.50;;
69835;SDS011;57132;51.972;4.450;2023-03-20T08:16:51;14.68;;;7.88;;
69835;SDS011;57132;51.972;4.450;2023-03-20T08:19:17;22.42;;;7.45;;
69835;SDS011;57132;51.972;4.450;2023-03-20T08:21:42;21.83;;;8.65;;
69835;SDS011;57132;51.972;4.450;2023-03-20T08:24:08;23.73;;;9.60;;
69835;SDS011;57132;51.972;4.450;2023-03-20T08:26:33;19.73;;;8.05;;
69835;SDS011;57132;51.972;4.450;2023-03-20T08:28:59;25.10;;;8.80;;
69835;SDS011;57132;51.972;4.450;2023-03-20T08:31:24;27.25;;;8.82;;
69835;SDS011;57132;51.972;4.450;2023-03-20T08:33:50;18.60;;;8.60;;
69835;SDS011;57132;51.972;4.450;2023-03-20T08:36:16;23.20;;;9.68;;
69835;SDS011;57132;51.972;4.450;2023-03-20T08:38:44;26.42;;;10.00;;
69835;SDS011;57132;51.972;4.450;2023-03-20T08:41:10;24.33;;;9.52;;
69835;SDS011;57132;51.972;4.450;2023-03-20T08:43:35;26.35;;;8.60;;
69835;SDS011;57132;51.972;4.450;2023-03-20T08:46:01;29.52;;;10.88;;
69835;SDS011;57132;51.972;4.450;2023-03-20T08:48:26;28.77;;;10.50;;
69835;SDS011;57132;51.972;4.450;2023-03-20T08:50:52;27.45;;;10.73;;
69835;SDS011;57132;51.972;4.450;2023-03-20T08:53:17;29.45;;;10.05;;
69835;SDS011;57132;51.972;4.450;2023-03-20T08:55:46;25.88;;;9.98;;
69835;SDS011;57132;51.972;4.450;2023-03-20T08:58:15;25.08;;;11.30;;
69835;SDS011;57132;51.972;4.450;2023-03-20T09:00:42;28.67;;;10.57;;
69835;SDS011;57132;51.972;4.450;2023-03-20T09:03:15;24.42;;;10.23;;
69835;SDS011;57132;51.972;4.450;2023-03-20T09:05:45;23.92;;;11.18;;
69835;SDS011;57132;51.972;4.450;2023-03-20T09:08:12;30.45;;;12.45;;
69835;SDS011;57132;51.972;4.450;2023-03-20T09:10:37;28.17;;;11.63;;
69835;SDS011;57132;51.972;4.450;2023-03-20T09:13:04;31.42;;;13.25;;
69835;SDS011;57132;51.972;4.450;2023-03-20T09:15:30;30.70;;;12.32;;
69835;SDS011;57132;51.972;4.450;2023-03-20T09:17:55;42.47;;;14.55;;
69835;SDS011;57132;51.972;4.450;2023-03-20T09:20:21;27.83;;;12.15;;
69835;SDS011;57132;51.972;4.450;2023-03-20T09:22:46;35.25;;;14.07;;
69835;SDS011;57132;51.972;4.450;2023-03-20T09:25:12;26.65;;;13.27;;
69835;SDS011;57132;51.972;4.450;2023-03-20T09:27:37;39.45;;;15.02;;
69835;SDS011;57132;51.972;4.450;2023-03-20T09:30:04;42.20;;;15.82;;
69835;SDS011;57132;51.972;4.450;2023-03-20T09:32:32;33.22;;;14.25;;
69835;SDS011;57132;51.972;4.450;2023-03-20T09:34:59;41.70;;;15.73;;
69835;SDS011;57132;51.972;4.450;2023-03-20T09:37:24;40.95;;;15.90;;
69835;SDS011;57132;51.972;4.450;2023-03-20T09:39:50;38.22;;;15.18;;
69835;SDS011;57132;51.972;4.450;2023-03-20T09:43:17;37.95;;;16.23;;
69835;SDS011;57132;51.972;4.450;2023-03-20T09:45:49;38.33;;;16.52;;
69835;SDS011;57132;51.972;4.450;2023-03-20T09:51:39;34.25;;;18.27;;
69835;SDS011;57132;51.972;4.450;2023-03-20T09:56:50;42.55;;;17.73;;
69835;SDS011;57132;51.972;4.450;2023-03-20T09:59:16;35.50;;;17.25;;
69835;SDS011;57132;51.972;4.450;2023-03-20T10:01:48;43.20;;;18.98;;
69835;SDS011;57132;51.972;4.450;2023-03-20T10:04:16;41.40;;;18.58;;
69835;SDS011;57132;51.972;4.450;2023-03-20T10:06:42;46.10;;;19.77;;
69835;SDS011;57132;51.972;4.450;2023-03-20T10:09:20;37.80;;;18.15;;
69835;SDS011;57132;51.972;4.450;2023-03-20T10:17:38;40.92;;;18.63;;
69835;SDS011;57132;51.972;4.450;2023-03-20T10:22:40;45.60;;;19.77;;
69835;SDS011;57132;51.972;4.450;2023-03-20T10:27:45;37.47;;;18.45;;
69835;SDS011;57132;51.972;4.450;2023-03-20T10:40:31;48.63;;;22.33;;
69835;SDS011;57132;51.972;4.450;2023-03-20T10:43:04;42.47;;;20.25;;
69835;SDS011;57132;51.972;4.450;2023-03-20T10:45:45;46.38;;;20.10;;
69835;SDS011;57132;51.972;4.450;2023-03-20T10:48:16;39.55;;;20.20;;
69835;SDS011;57132;51.972;4.450;2023-03-20T10:50:49;45.25;;;19.65;;
69835;SDS011;57132;51.972;4.450;2023-03-20T10:53:35;38.67;;;18.55;;
69835;SDS011;57132;51.972;4.450;2023-03-20T10:56:07;48.03;;;20.83;;
69835;SDS011;57132;51.972;4.450;2023-03-20T10:58:38;38.83;;;19.98;;
69835;SDS011;57132;51.972;4.450;2023-03-20T11:01:06;46.38;;;19.98;;
69835;SDS011;57132;51.972;4.450;2023-03-20T11:03:32;52.60;;;20.42;;
69835;SDS011;57132;51.972;4.450;2023-03-20T11:06:02;48.10;;;20.25;;
69835;SDS011;57132;51.972;4.450;2023-03-20T11:08:38;41.58;;;19.55;;
69835;SDS011;57132;51.972;4.450;2023-03-20T11:11:06;47.22;;;21.02;;
69835;SDS011;57132;51.972;4.450;2023-03-20T11:18:35;41.65;;;19.02;;
69835;SDS011;57132;51.972;4.450;2023-03-20T11:21:01;48.55;;;18.77;;
69835;SDS011;57132;51.972;4.450;2023-03-20T11:23:28;39.30;;;18.75;;
69835;SDS011;57132;51.972;4.450;2023-03-20T11:26:02;44.08;;;18.77;;
69835;SDS011;57132;51.972;4.450;2023-03-20T11:31:05;40.00;;;17.33;;
69835;SDS011;57132;51.972;4.450;2023-03-20T11:33:42;42.00;;;19.17;;
69835;SDS011;57132;51.972;4.450;2023-03-20T11:36:31;40.08;;;19.15;;
69835;SDS011;57132;51.972;4.450;2023-03-20T11:39:00;45.72;;;21.08;;
69835;SDS011;57132;51.972;4.450;2023-03-20T11:41:31;45.95;;;19.63;;
69835;SDS011;57132;51.972;4.450;2023-03-20T11:43:56;37.60;;;20.95;;
69835;SDS011;57132;51.972;4.450;2023-03-20T11:46:22;43.35;;;21.77;;
69835;SDS011;57132;51.972;4.450;2023-03-20T11:49:05;51.40;;;23.15;;
69835;SDS011;57132;51.972;4.450;2023-03-20T11:51:43;41.40;;;22.77;;
69835;SDS011;57132;51.972;4.450;2023-03-20T11:54:13;52.10;;;21.98;;
69835;SDS011;57132;51.972;4.450;2023-03-20T11:56:50;49.60;;;23.23;;
69835;SDS011;57132;51.972;4.450;2023-03-20T11:59:25;46.03;;;23.08;;
69835;SDS011;57132;51.972;4.450;2023-03-20T12:01:57;46.47;;;23.33;;
69835;SDS011;57132;51.972;4.450;2023-03-20T12:04:35;55.15;;;24.65;;
69835;SDS011;57132;51.972;4.450;2023-03-20T12:09:45;58.75;;;25.08;;
69835;SDS011;57132;51.972;4.450;2023-03-20T12:14:52;53.65;;;26.27;;
69835;SDS011;57132;51.972;4.450;2023-03-20T12:22:57;68.57;;;28.27;;
69835;SDS011;57132;51.972;4.450;2023-03-20T12:25:46;66.00;;;28.55;;
69835;SDS011;57132;51.972;4.450;2023-03-20T12:28:28;67.25;;;29.05;;
69835;SDS011;57132;51.972;4.450;2023-03-20T12:31:09;61.65;;;29.73;;
69835;SDS011;57132;51.972;4.450;2023-03-20T12:34:14;65.45;;;28.63;;
69835;SDS011;57132;51.972;4.450;2023-03-20T12:36:48;63.63;;;31.00;;
69835;SDS011;57132;51.972;4.450;2023-03-20T12:39:17;57.03;;;29.73;;
69835;SDS011;57132;51.972;4.450;2023-03-20T13:12:10;59.30;;;27.95;;
69835;SDS011;57132;51.972;4.450;2023-03-20T13:14:46;57.53;;;28.45;;
69835;SDS011;57132;51.972;4.450;2023-03-20T13:17:36;48.20;;;25.85;;
69835;SDS011;57132;51.972;4.450;2023-03-20T13:22:53;54.88;;;27.60;;
69835;SDS011;57132;51.972;4.450;2023-03-20T13:34:20;54.97;;;24.48;;
69835;SDS011;57132;51.972;4.450;2023-03-20T13:42:58;57.00;;;26.33;;
69835;SDS011;57132;51.972;4.450;2023-03-20T13:48:48;66.07;;;32.13;;
69835;SDS011;57132;51.972;4.450;2023-03-20T13:51:02;67.43;;;33.50;;
69835;SDS011;57132;51.972;4.450;2023-03-20T14:01:34;79.88;;;38.72;;
69835;SDS011;57132;51.972;4.450;2023-03-20T14:04:12;92.43;;;39.53;;
69835;SDS011;57132;51.972;4.450;2023-03-20T14:06:43;102.65;;;41.30;;
69835;SDS011;57132;51.972;4.450;2023-03-20T14:09:26;88.25;;;39.75;;
69835;SDS011;57132;51.972;4.450;2023-03-20T14:12:02;98.60;;;39.92;;
69835;SDS011;57132;51.972;4.450;2023-03-20T14:14:31;97.75;;;40.90;;
69835;SDS011;57132;51.972;4.450;2023-03-20T14:17:40;106.28;;;41.10;;
69835;SDS011;57132;51.972;4.450;2023-03-20T14:19:56;97.45;;;38.67;;
69835;SDS011;57132;51.972;4.450;2023-03-20T14:22:37;113.43;;;44.53;;
69835;SDS011;57132;51.972;4.450;2023-03-20T14:25:05;112.97;;;43.85;;
69835;SDS011;57132;51.972;4.450;2023-03-20T14:27:34;113.13;;;42.25;;
69835;SDS011;57132;51.972;4.450;2023-03-20T14:33:00;105.95;;;44.22;;
69835;SDS011;57132;51.972;4.450;2023-03-20T14:35:29;105.45;;;42.70;;
69835;SDS011;57132;51.972;4.450;2023-03-20T14:46:52;107.72;;;44.47;;
69835;SDS011;57132;51.972;4.450;2023-03-20T14:54:41;112.53;;;46.58;;
69835;SDS011;57132;51.972;4.450;2023-03-20T14:57:08;103.95;;;43.35;;
69835;SDS011;57132;51.972;4.450;2023-03-20T14:59:50;110.03;;;43.80;;
69835;SDS011;57132;51.972;4.450;2023-03-20T15:05:00;107.35;;;41.30;;
69835;SDS011;57132;51.972;4.450;2023-03-20T15:07:27;106.25;;;43.50;;
69835;SDS011;57132;51.972;4.450;2023-03-20T15:09:56;84.18;;;39.78;;
69835;SDS011;57132;51.972;4.450;2023-03-20T15:12:25;102.72;;;40.40;;
69835;SDS011;57132;51.972;4.450;2023-03-20T15:14:56;100.60;;;40.17;;
69835;SDS011;57132;51.972;4.450;2023-03-20T15:20:16;109.55;;;45.50;;
69835;SDS011;57132;51.972;4.450;2023-03-20T15:22:51;125.40;;;45.00;;
69835;SDS011;57132;51.972;4.450;2023-03-20T15:27:45;95.10;;;38.72;;
69835;SDS011;57132;51.972;4.450;2023-03-20T15:30:12;99.35;;;42.08;;
69835;SDS011;57132;51.972;4.450;2023-03-20T15:32:41;104.15;;;41.03;;
69835;SDS011;57132;51.972;4.450;2023-03-20T15:35:10;107.03;;;40.55;;
69835;SDS011;57132;51.972;4.450;2023-03-20T15:37:39;102.40;;;40.20;;
69835;SDS011;57132;51.972;4.450;2023-03-20T15:40:12;102.50;;;40.15;;
69835;SDS011;57132;51.972;4.450;2023-03-20T15:42:51;103.32;;;42.38;;
69835;SDS011;57132;51.972;4.450;2023-03-20T15:45:25;102.10;;;38.88;;
69835;SDS011;57132;51.972;4.450;2023-03-20T15:50:32;92.78;;;35.75;;
69835;SDS011;57132;51.972;4.450;2023-03-20T15:53:01;94.80;;;35.17;;
69835;SDS011;57132;51.972;4.450;2023-03-20T15:55:28;77.47;;;32.03;;
69835;SDS011;57132;51.972;4.450;2023-03-20T15:57:57;72.47;;;30.58;;
69835;SDS011;57132;51.972;4.450;2023-03-20T16:00:26;78.45;;;30.55;;
69835;SDS011;57132;51.972;4.450;2023-03-20T16:02:54;80.45;;;29.45;;
69835;SDS011;57132;51.972;4.450;2023-03-20T16:05:22;67.18;;;25.33;;
69835;SDS011;57132;51.972;4.450;2023-03-20T16:07:50;69.53;;;26.00;;
69835;SDS011;57132;51.972;4.450;2023-03-20T16:10:17;56.67;;;23.45;;
69835;SDS011;57132;51.972;4.450;2023-03-20T16:12:47;55.42;;;23.88;;
69835;SDS011;57132;51.972;4.450;2023-03-20T16:15:19;55.40;;;21.33;;
69835;SDS011;57132;51.972;4.450;2023-03-20T16:17:46;48.53;;;15.75;;
69835;SDS011;57132;51.972;4.450;2023-03-20T16:20:16;36.25;;;13.60;;
69835;SDS011;57132;51.972;4.450;2023-03-20T16:22:42;41.35;;;12.00;;
69835;SDS011;57132;51.972;4.450;2023-03-20T16:25:12;24.10;;;10.25;;
69835;SDS011;57132;51.972;4.450;2023-03-20T16:27:39;22.52;;;9.10;;
69835;SDS011;57132;51.972;4.450;2023-03-20T16:30:19;25.60;;;9.10;;
69835;SDS011;57132;51.972;4.450;2023-03-20T16:32:50;27.45;;;8.95;;
69835;SDS011;57132;51.972;4.450;2023-03-20T16:35:35;35.97;;;7.93;;
69835;SDS011;57132;51.972;4.450;2023-03-20T16:38:13;23.80;;;7.70;;
69835;SDS011;57132;51.972;4.450;2023-03-20T16:40:52;22.67;;;8.05;;
69835;SDS011;57132;51.972;4.450;2023-03-20T16:43:21;25.98;;;9.55;;
69835;SDS011;57132;51.972;4.450;2023-03-20T16:45:53;28.55;;;8.23;;
69835;SDS011;57132;51.972;4.450;2023-03-20T16:50:58;20.80;;;7.88;;
69835;SDS011;57132;51.972;4.450;2023-03-20T16:53:28;35.50;;;10.40;;
69835;SDS011;57132;51.972;4.450;2023-03-20T16:56:00;27.55;;;8.73;;
69835;SDS011;57132;51.972;4.450;2023-03-20T16:58:28;31.55;;;13.10;;
69835;SDS011;57132;51.972;4.450;2023-03-20T17:01:00;30.63;;;12.45;;
69835;SDS011;57132;51.972;4.450;2023-03-20T17:03:34;25.95;;;10.82;;
69835;SDS011;57132;51.972;4.450;2023-03-20T17:08:48;30.48;;;11.00;;
69835;SDS011;57132;51.972;4.450;2023-03-20T17:11:28;26.40;;;9.73;;
69835;SDS011;57132;51.972;4.450;2023-03-20T17:13:57;24.73;;;10.48;;
69835;SDS011;57132;51.972;4.450;2023-03-20T17:16:23;29.73;;;10.30;;
69835;SDS011;57132;51.972;4.450;2023-03-20T17:19:03;26.15;;;11.48;;
69835;SDS011;57132;51.972;4.450;2023-03-20T17:21:31;38.85;;;11.75;;
69835;SDS011;57132;51.972;4.450;2023-03-20T17:23:57;34.50;;;12.43;;
69835;SDS011;57132;51.972;4.450;2023-03-20T17:26:22;34.45;;;13.48;;
69835;SDS011;57132;51.972;4.450;2023-03-20T17:28:48;33.95;;;13.13;;